Hauptseite
METAR-TAF:

METAR-TAF

Flughäfen :

Flughafen Glasgow-Prestwick

Glasgow-Prestwick, Schottland

Breite: 55-30N, Länge: 004-35W, Höhe: 20 m

Beobachtung

Neuester Wetterbericht von vor 11 Minuten, um 19:20 UTC
Wind 10 kt aus West/Nordwest
Temperatur 12°C
Luftfeuchtigkeit 67%
Luftdruck 1017 hPa
Sichtweite 10 km oder mehr
Leicht bewölkt in der Höhe von 2000 ft

METAR: EGPK 221920Z 30010KT 9999 FEW020 12/06 Q1017

Zeit: 20:31 (19:31 UTC)

Prognose

Neuester Wetterbericht von vor 2 Stunden und 29 Minuten, um 17:02 UTC
Gültige Prognose vom 22 um 18 UTC bis 23 um 18 UTC
Wind 9 kt aus West
Sichtweite 10 km oder mehr
Aufgelockert bewölkt in der Höhe von 2000 ft
Wahrscheinlichkeit 40% :
Zeitweise
vom 23 um 02 UTC bis 23 um 09 UTC
Durchbrochene Bewölkung in der Höhe von 1200 ft

TAF: EGPK 221702Z 2218/2318 27009KT 9999 SCT020 PROB40 TEMPO 2302/2309 BKN012

Wetterbeobachtungen und Prognosen von mehr als 4000 Flughäfen (METAR und TAF Bericht).

Die verfügbaren Stationen werden durch gelbe und rote Markierungen auf der Karte dargestellt.

Führen Sie die Maus auf sie, um den Namen der Station zu sehen.

Darauf klicken, um die Beobachtung von Wetterbeobachtungen und Prognosen zu sehen.

Um die Karte zu ändern : klicken Sie auf den grünen Tasten mit einem schwarzen Kreuz Zum Vergrößern, auf den grünen Button mit einem Gedankenstrich zu verkleinern, oder auf die grünen Pfeile für benachbarte Karten.


METAR-TAF: